Time;durP1;ratioP1;P1;durP2;ratioP2;P2;SDS_P1;SDS_P2;PMS_P1;PMS_P2;Temp;Humidity;BMP_temperature;BMP_pressure;BME280_temperature;BME280_humidity;BME280_pressure;Samples;Min_cycle;Max_cycle;Signal;HPM_P1;HPM_P2
2023/04/08 00:00:24;;;;;;;2.28;1.00;;;;;;;;;;1043638;28;20128;-23
2023/04/08 00:00:55;;;;;;;3.75;2.13;;;;;;;;;;1043774;28;20058;-22
2023/04/08 00:01:26;;;;;;;2.38;1.92;;;;;;;;;;1043881;28;20028;-23
2023/04/08 00:01:56;;;;;;;2.55;1.55;;;;;;;;;;1043697;28;20091;-22
2023/04/08 00:02:27;;;;;;;2.45;1.15;;;;;;;;;;1043909;28;20021;-25
2023/04/08 00:02:57;;;;;;;5.97;2.05;;;;;;;;;;1043838;28;20063;-22
2023/04/08 00:03:28;;;;;;;2.80;2.55;;;;;;;;;;1042799;28;20016;-20
2023/04/08 00:03:58;;;;;;;17.67;4.40;;;;;;;;;;1043768;28;20028;-23
2023/04/08 00:04:30;;;;;;;5.13;1.58;;;;;;;;;;1043859;28;20362;-22
2023/04/08 00:05:01;;;;;;;5.25;2.97;;;;;;;;;;1043882;28;20048;-24
2023/04/08 00:05:32;;;;;;;15.85;2.60;;;;;;;;;;1043705;28;20025;-22
2023/04/08 00:06:03;;;;;;;2.00;1.75;;;;;;;;;;1043966;28;20415;-24
2023/04/08 00:06:34;;;;;;;5.30;2.15;;;;;;;;;;1043531;28;20116;-22
2023/04/08 00:07:05;;;;;;;1.45;1.35;;;;;;;;;;1044017;28;20039;-21
2023/04/08 00:07:36;;;;;;;4.63;2.10;;;;;;;;;;1043679;28;20031;-23
2023/04/08 00:08:06;;;;;;;9.63;2.35;;;;;;;;;;1043359;28;20468;-21
2023/04/08 00:08:37;;;;;;;10.65;3.05;;;;;;;;;;1043213;28;20021;-22
2023/04/08 00:09:07;;;;;;;3.20;1.75;;;;;;;;;;1044016;28;20048;-23
2023/04/08 00:09:38;;;;;;;1.50;1.40;;;;;;;;;;1043585;28;20071;-21
2023/04/08 00:10:09;;;;;;;18.33;4.47;;;;;;;;;;1043596;28;20032;-21
2023/04/08 00:10:39;;;;;;;25.17;7.80;;;;;;;;;;1043693;28;20029;-23
2023/04/08 00:11:10;;;;;;;19.90;8.07;;;;;;;;;;1043825;28;20436;-20
2023/04/08 00:11:41;;;;;;;33.83;5.95;;;;;;;;;;1043437;28;20126;-23
2023/04/08 00:12:11;;;;;;;22.80;5.35;;;;;;;;;;1043516;28;20035;-22
2023/04/08 00:12:42;;;;;;;12.50;4.72;;;;;;;;;;1043767;28;20024;-22
2023/04/08 00:13:13;;;;;;;10.93;4.63;;;;;;;;;;1042908;28;20051;-23
2023/04/08 00:13:44;;;;;;;13.20;4.13;;;;;;;;;;1043652;28;20032;-20
2023/04/08 00:14:15;;;;;;;10.45;5.38;;;;;;;;;;1043863;28;20159;-23
2023/04/08 00:14:45;;;;;;;15.00;3.65;;;;;;;;;;1043295;28;20090;-22
2023/04/08 00:15:16;;;;;;;7.68;3.53;;;;;;;;;;1043644;28;20114;-23
2023/04/08 00:15:47;;;;;;;13.93;6.32;;;;;;;;;;1043379;28;20595;-21
2023/04/08 00:16:17;;;;;;;14.00;5.35;;;;;;;;;;1043320;28;20028;-23
2023/04/08 00:16:48;;;;;;;16.23;4.72;;;;;;;;;;1043665;28;20029;-22
2023/04/08 00:17:18;;;;;;;14.35;3.00;;;;;;;;;;1043782;28;20028;-23
2023/04/08 00:17:49;;;;;;;8.25;3.17;;;;;;;;;;1043591;28;20070;-24
2023/04/08 00:18:20;;;;;;;15.68;5.18;;;;;;;;;;1043786;28;20025;-23
2023/04/08 00:18:50;;;;;;;9.60;6.20;;;;;;;;;;1043675;28;20477;-24
2023/04/08 00:19:21;;;;;;;5.40;2.95;;;;;;;;;;1043333;28;20021;-23
2023/04/08 00:19:51;;;;;;;31.45;4.57;;;;;;;;;;1043021;28;20020;-23
2023/04/08 00:20:23;;;;;;;13.57;5.00;;;;;;;;;;1043874;28;20384;-22
2023/04/08 00:20:53;;;;;;;10.13;3.53;;;;;;;;;;1043525;28;20501;-22
2023/04/08 00:21:24;;;;;;;6.45;3.92;;;;;;;;;;1043836;28;20021;-22
2023/04/08 00:21:54;;;;;;;9.82;5.15;;;;;;;;;;1043678;28;20124;-24
2023/04/08 00:22:25;;;;;;;18.35;5.68;;;;;;;;;;1043810;28;20428;-22
2023/04/08 00:22:55;;;;;;;7.82;2.70;;;;;;;;;;1043531;28;20070;-23
2023/04/08 00:23:26;;;;;;;15.80;4.82;;;;;;;;;;1043690;28;20021;-23
2023/04/08 00:23:56;;;;;;;17.33;3.70;;;;;;;;;;1043571;28;20052;-24
2023/04/08 00:24:27;;;;;;;22.48;7.15;;;;;;;;;;1043658;28;20027;-21
2023/04/08 00:24:58;;;;;;;14.98;4.43;;;;;;;;;;1042498;28;20119;-24
2023/04/08 00:25:28;;;;;;;15.88;5.32;;;;;;;;;;1042739;28;20021;-22
2023/04/08 00:25:59;;;;;;;11.70;4.60;;;;;;;;;;1043615;28;20047;-24
2023/04/08 00:26:29;;;;;;;22.27;6.30;;;;;;;;;;1043626;28;20032;-19
2023/04/08 00:27:01;;;;;;;12.75;3.85;;;;;;;;;;1043437;28;20029;-21
2023/04/08 00:27:32;;;;;;;29.48;6.65;;;;;;;;;;1043335;28;20025;-23
2023/04/08 00:28:02;;;;;;;12.38;6.07;;;;;;;;;;1043657;28;20330;-23
2023/04/08 00:28:33;;;;;;;27.38;7.75;;;;;;;;;;1043578;28;20131;-23
2023/04/08 00:29:04;;;;;;;15.15;4.38;;;;;;;;;;1043827;28;20047;-23
2023/04/08 00:29:35;;;;;;;17.60;6.47;;;;;;;;;;1043584;28;20025;-23
2023/04/08 00:30:06;;;;;;;10.02;4.28;;;;;;;;;;1043709;28;20021;-24
2023/04/08 00:30:37;;;;;;;26.85;8.25;;;;;;;;;;1042987;28;20024;-23
2023/04/08 00:31:08;;;;;;;16.45;5.47;;;;;;;;;;1043772;28;20119;-23
2023/04/08 00:31:38;;;;;;;18.70;5.32;;;;;;;;;;1043624;28;20024;-21
2023/04/08 00:32:09;;;;;;;20.77;5.55;;;;;;;;;;1043649;28;20043;-23
2023/04/08 00:32:39;;;;;;;16.27;6.40;;;;;;;;;;1043573;28;20029;-24
2023/04/08 00:33:10;;;;;;;33.60;6.38;;;;;;;;;;1043833;28;20027;-23
2023/04/08 00:33:40;;;;;;;15.15;6.57;;;;;;;;;;1043441;28;20497;-23
2023/04/08 00:34:11;;;;;;;12.57;5.53;;;;;;;;;;1043747;28;20028;-23
2023/04/08 00:34:42;;;;;;;14.18;5.68;;;;;;;;;;1043513;28;20055;-22
2023/04/08 00:35:12;;;;;;;18.02;4.57;;;;;;;;;;1042747;28;20025;-23
2023/04/08 00:35:43;;;;;;;9.13;4.18;;;;;;;;;;1042480;28;20103;-24
2023/04/08 00:36:13;;;;;;;8.10;3.03;;;;;;;;;;1042562;28;20492;-23
2023/04/08 00:36:44;;;;;;;9.02;3.40;;;;;;;;;;1043618;28;20016;-19
2023/04/08 00:37:16;;;;;;;2.85;2.45;;;;;;;;;;1043825;28;20059;-22
2023/04/08 00:37:47;;;;;;;11.05;3.95;;;;;;;;;;1043467;28;20117;-23
2023/04/08 00:38:17;;;;;;;9.07;4.00;;;;;;;;;;1043694;28;20481;-22
2023/04/08 00:38:48;;;;;;;17.13;4.90;;;;;;;;;;1043721;28;20402;-22
2023/04/08 00:39:18;;;;;;;11.45;6.00;;;;;;;;;;1043790;28;20025;-22
2023/04/08 00:39:49;;;;;;;17.95;4.03;;;;;;;;;;1043642;28;20466;-23
2023/04/08 00:40:19;;;;;;;14.43;3.83;;;;;;;;;;1043815;28;20025;-23
2023/04/08 00:40:50;;;;;;;12.32;5.40;;;;;;;;;;1043577;28;20020;-21
2023/04/08 00:41:21;;;;;;;16.80;5.40;;;;;;;;;;1043785;28;20388;-23
2023/04/08 00:41:51;;;;;;;14.23;5.65;;;;;;;;;;1043570;28;20170;-22
2023/04/08 00:42:22;;;;;;;13.15;4.72;;;;;;;;;;1043547;28;20025;-23
2023/04/08 00:42:52;;;;;;;8.27;4.40;;;;;;;;;;1043652;28;20056;-22
2023/04/08 00:43:23;;;;;;;4.82;2.72;;;;;;;;;;1043834;28;20052;-24
2023/04/08 00:43:53;;;;;;;7.75;4.22;;;;;;;;;;1043617;28;20036;-22
2023/04/08 00:44:24;;;;;;;13.45;3.95;;;;;;;;;;1043746;28;20031;-23
2023/04/08 00:44:54;;;;;;;19.20;5.43;;;;;;;;;;1043578;28;20033;-22
2023/04/08 00:45:25;;;;;;;10.27;2.92;;;;;;;;;;1043823;28;20024;-23
2023/04/08 00:45:55;;;;;;;8.77;3.95;;;;;;;;;;1043253;28;20031;-20
2023/04/08 00:46:26;;;;;;;8.80;3.42;;;;;;;;;;1043682;28;20021;-21
2023/04/08 00:46:57;;;;;;;12.40;4.45;;;;;;;;;;1043633;28;20025;-23
2023/04/08 00:47:27;;;;;;;14.18;5.03;;;;;;;;;;1043656;28;20025;-22
2023/04/08 00:47:58;;;;;;;4.18;2.88;;;;;;;;;;1043645;28;20024;-25
2023/04/08 00:48:28;;;;;;;5.32;3.80;;;;;;;;;;1043772;28;20013;-24
2023/04/08 00:49:01;;;;;;;3.67;2.00;;;;;;;;;;1043768;28;20477;-23
2023/04/08 00:49:31;;;;;;;7.03;2.83;;;;;;;;;;1043551;28;20083;-23
2023/04/08 00:50:03;;;;;;;7.00;3.58;;;;;;;;;;1043768;28;20138;-22
2023/04/08 00:50:33;;;;;;;1.40;1.30;;;;;;;;;;1043545;28;20032;-21
2023/04/08 00:51:04;;;;;;;7.70;2.67;;;;;;;;;;1043810;28;20029;-20
2023/04/08 00:51:38;;;;;;;30.77;3.38;;;;;;;;;;1043525;28;20567;-23
2023/04/08 00:52:08;;;;;;;12.68;4.13;;;;;;;;;;1043492;28;20021;-23
2023/04/08 00:52:39;;;;;;;5.35;3.88;;;;;;;;;;1043669;28;20531;-22
2023/04/08 00:53:10;;;;;;;18.67;4.63;;;;;;;;;;1043871;28;20021;-23
2023/04/08 00:53:40;;;;;;;16.83;3.33;;;;;;;;;;1043647;28;20481;-22
2023/04/08 00:54:10;;;;;;;13.93;2.75;;;;;;;;;;1043383;28;20033;-22
2023/04/08 00:54:41;;;;;;;4.18;2.25;;;;;;;;;;1043631;28;20053;-23
2023/04/08 00:55:12;;;;;;;4.28;3.60;;;;;;;;;;1043892;28;20062;-23
2023/04/08 00:55:42;;;;;;;14.07;4.88;;;;;;;;;;1042496;28;20025;-23
2023/04/08 00:56:13;;;;;;;3.95;2.28;;;;;;;;;;1042597;28;20029;-23
2023/04/08 00:56:44;;;;;;;7.72;3.22;;;;;;;;;;1042399;28;20029;-21
2023/04/08 00:57:14;;;;;;;4.25;2.88;;;;;;;;;;1043282;28;20119;-23
2023/04/08 00:57:45;;;;;;;3.42;3.13;;;;;;;;;;1043477;28;20013;-23
2023/04/08 00:58:16;;;;;;;10.75;4.95;;;;;;;;;;1043725;28;20067;-22
2023/04/08 00:58:46;;;;;;;6.78;2.65;;;;;;;;;;1043490;28;20029;-22
2023/04/08 00:59:17;;;;;;;9.75;5.10;;;;;;;;;;1043753;28;20020;-24
2023/04/08 00:59:48;;;;;;;20.77;4.40;;;;;;;;;;1043580;28;20033;-22
2023/04/08 01:00:18;;;;;;;10.98;4.03;;;;;;;;;;1043364;28;20025;-24
2023/04/08 01:00:53;;;;;;;6.20;3.33;;;;;;;;;;1043559;28;20454;-22
2023/04/08 01:01:28;;;;;;;6.88;3.03;;;;;;;;;;1043293;28;20106;-23
2023/04/08 01:02:06;;;;;;;6.53;4.57;;;;;;;;;;1043544;28;20063;-24
2023/04/08 01:02:45;;;;;;;5.85;2.85;;;;;;;;;;1043029;28;20024;-23
2023/04/08 01:03:16;;;;;;;;;;;;;;;;;;1043831;28;20563;-23
2023/04/08 01:03:50;;;;;;;4.78;2.22;;;;;;;;;;1043368;28;20031;-23
2023/04/08 01:04:23;;;;;;;7.18;4.22;;;;;;;;;;1043399;28;20032;-24
2023/04/08 01:05:04;;;;;;;8.95;3.97;;;;;;;;;;1043027;28;20497;-23
2023/04/08 01:05:47;;;;;;;25.38;3.40;;;;;;;;;;1043576;28;20020;-22
2023/04/08 01:06:17;;;;;;;6.30;2.65;;;;;;;;;;1042940;28;20013;-23
2023/04/08 01:06:50;;;;;;;7.30;3.85;;;;;;;;;;1043661;28;20029;-23
2023/04/08 01:07:25;;;;;;;10.63;3.22;;;;;;;;;;1043582;28;20465;-20
2023/04/08 01:07:57;;;;;;;14.38;4.40;;;;;;;;;;1043336;28;21637;-23
2023/04/08 01:08:30;;;;;;;6.50;3.92;;;;;;;;;;1042605;28;20025;-23
2023/04/08 01:09:04;;;;;;;6.50;4.45;;;;;;;;;;1043677;28;20078;-23
2023/04/08 01:09:37;;;;;;;5.30;3.72;;;;;;;;;;1043508;28;20025;-23
2023/04/08 01:10:12;;;;;;;10.77;4.55;;;;;;;;;;1043349;28;20025;-23
2023/04/08 01:10:44;;;;;;;4.72;2.80;;;;;;;;;;1042447;28;20541;-24
2023/04/08 01:11:15;;;;;;;25.30;5.65;;;;;;;;;;1043600;28;20025;-20
2023/04/08 01:11:48;;;;;;;12.95;6.05;;;;;;;;;;1043515;28;20032;-25
2023/04/08 01:12:26;;;;;;;21.75;4.88;;;;;;;;;;1043135;28;20428;-23
2023/04/08 01:12:58;;;;;;;6.15;3.03;;;;;;;;;;1043614;28;20448;-24
2023/04/08 01:13:31;;;;;;;13.98;4.45;;;;;;;;;;1042669;28;20485;-23
2023/04/08 01:14:05;;;;;;;6.97;3.78;;;;;;;;;;1043612;28;20025;-23
2023/04/08 01:14:39;;;;;;;6.68;3.72;;;;;;;;;;1043411;28;20025;-22
2023/04/08 01:15:10;;;;;;;4.40;2.30;;;;;;;;;;1043651;28;20112;-23
2023/04/08 01:15:41;;;;;;;17.08;4.93;;;;;;;;;;1043388;28;20512;-23
2023/04/08 01:16:13;;;;;;;10.77;4.72;;;;;;;;;;1043609;28;20032;-24
2023/04/08 01:16:45;;;;;;;4.32;2.55;;;;;;;;;;1042277;28;20427;-23
2023/04/08 01:17:17;;;;;;;11.15;4.03;;;;;;;;;;1043738;28;20017;-22
2023/04/08 01:17:49;;;;;;;11.07;5.68;;;;;;;;;;1043535;28;20029;-22
2023/04/08 01:18:20;;;;;;;11.90;3.05;;;;;;;;;;1043580;28;20021;-23
2023/04/08 01:18:52;;;;;;;5.07;2.90;;;;;;;;;;1042944;28;20406;-24
2023/04/08 01:19:26;;;;;;;6.70;4.03;;;;;;;;;;1043710;28;20017;-23
2023/04/08 01:19:59;;;;;;;8.25;3.80;;;;;;;;;;1043445;28;20028;-23
2023/04/08 01:20:29;;;;;;;10.80;4.90;;;;;;;;;;1042608;28;20037;-23
2023/04/08 01:21:00;;;;;;;5.55;3.00;;;;;;;;;;1043723;28;20480;-23
2023/04/08 01:21:31;;;;;;;4.72;3.45;;;;;;;;;;1043498;28;20075;-21
2023/04/08 01:22:11;;;;;;;11.98;4.55;;;;;;;;;;1043033;28;20100;-19
2023/04/08 01:22:42;;;;;;;;;;;;;;;;;;1043726;28;20428;-23
2023/04/08 01:23:18;;;;;;;13.60;4.40;;;;;;;;;;1043340;28;19944;-23
2023/04/08 01:23:56;;;;;;;5.05;3.20;;;;;;;;;;1043055;28;20035;-24
2023/04/08 01:24:28;;;;;;;7.55;4.07;;;;;;;;;;1043667;28;20055;-22
2023/04/08 01:25:05;;;;;;;4.80;3.67;;;;;;;;;;1042554;28;20469;-23
2023/04/08 01:25:37;;;;;;;4.53;2.95;;;;;;;;;;1043396;28;20090;-23
2023/04/08 01:26:09;;;;;;;7.18;2.90;;;;;;;;;;1043154;28;20437;-22
2023/04/08 01:26:40;;;;;;;23.48;4.10;;;;;;;;;;1043320;28;20033;-24
2023/04/08 01:27:11;;;;;;;7.53;4.40;;;;;;;;;;1042902;28;20036;-21
2023/04/08 01:27:43;;;;;;;10.63;3.72;;;;;;;;;;1043382;28;20098;-23
2023/04/08 01:28:15;;;;;;;8.63;4.50;;;;;;;;;;1042649;28;20054;-21
2023/04/08 01:28:46;;;;;;;5.38;2.92;;;;;;;;;;1042756;28;20121;-23
2023/04/08 01:29:17;;;;;;;4.95;3.30;;;;;;;;;;1043598;28;20481;-23
2023/04/08 01:29:48;;;;;;;9.35;2.83;;;;;;;;;;1043639;28;21215;-23
2023/04/08 01:30:20;;;;;;;12.63;4.07;;;;;;;;;;1043634;28;20021;-23
2023/04/08 01:30:51;;;;;;;11.32;2.47;;;;;;;;;;1043083;28;20555;-20
2023/04/08 01:31:23;;;;;;;13.18;1.85;;;;;;;;;;1042376;28;20025;-24
2023/04/08 01:31:53;;;;;;;7.15;3.00;;;;;;;;;;1043269;28;20021;-24
2023/04/08 01:32:25;;;;;;;14.90;3.42;;;;;;;;;;1043352;28;20433;-19
2023/04/08 01:32:57;;;;;;;4.25;2.10;;;;;;;;;;1043292;28;20068;-23
2023/04/08 01:33:28;;;;;;;5.13;2.38;;;;;;;;;;1042741;28;20079;-24
2023/04/08 01:34:00;;;;;;;5.15;2.92;;;;;;;;;;1042073;28;20021;-25
2023/04/08 01:34:31;;;;;;;10.45;3.47;;;;;;;;;;1043237;28;20052;-23
2023/04/08 01:35:02;;;;;;;4.38;2.78;;;;;;;;;;1043465;28;20491;-25
2023/04/08 01:35:33;;;;;;;12.65;4.40;;;;;;;;;;1043126;28;20106;-23
2023/04/08 01:36:04;;;;;;;17.42;4.80;;;;;;;;;;1043491;28;20048;-24
2023/04/08 01:36:36;;;;;;;11.30;2.15;;;;;;;;;;1043402;28;20017;-22
2023/04/08 01:37:07;;;;;;;10.52;2.85;;;;;;;;;;1043277;28;20504;-25
2023/04/08 01:37:37;;;;;;;6.05;2.75;;;;;;;;;;1043407;28;20032;-22
2023/04/08 01:38:09;;;;;;;8.05;2.13;;;;;;;;;;1043595;28;20029;-23
2023/04/08 01:38:40;;;;;;;6.05;3.85;;;;;;;;;;1043454;28;20028;-23
2023/04/08 01:39:12;;;;;;;8.00;3.97;;;;;;;;;;1043414;28;20028;-24
2023/04/08 01:39:43;;;;;;;10.30;2.17;;;;;;;;;;1042341;28;20036;-25
2023/04/08 01:40:15;;;;;;;9.18;3.95;;;;;;;;;;1043518;28;20564;-24
2023/04/08 01:40:46;;;;;;;4.18;3.33;;;;;;;;;;1043497;28;20130;-25
2023/04/08 01:41:17;;;;;;;3.90;2.03;;;;;;;;;;1043546;28;20499;-25
2023/04/08 01:41:49;;;;;;;8.95;3.85;;;;;;;;;;1043432;28;20103;-25
2023/04/08 01:42:21;;;;;;;6.80;2.80;;;;;;;;;;1043139;28;20052;-23
2023/04/08 01:42:54;;;;;;;3.65;2.33;;;;;;;;;;1043136;28;20032;-24
2023/04/08 01:43:26;;;;;;;5.47;3.00;;;;;;;;;;1043417;28;20024;-25
2023/04/08 01:43:57;;;;;;;16.00;4.72;;;;;;;;;;1041921;28;20037;-25
2023/04/08 01:44:29;;;;;;;2.55;1.90;;;;;;;;;;1042138;28;20487;-22
2023/04/08 01:45:00;;;;;;;8.50;2.45;;;;;;;;;;1041315;28;20090;-25
2023/04/08 01:45:31;;;;;;;4.72;2.40;;;;;;;;;;1043313;28;20029;-25
2023/04/08 01:46:02;;;;;;;2.80;2.00;;;;;;;;;;1043664;28;20017;-24
2023/04/08 01:46:32;;;;;;;6.75;3.55;;;;;;;;;;1043390;28;20730;-25
2023/04/08 01:47:03;;;;;;;12.45;3.17;;;;;;;;;;1041456;28;20088;-22
2023/04/08 01:47:34;;;;;;;1.83;1.50;;;;;;;;;;1042755;28;20024;-25
2023/04/08 01:48:05;;;;;;;4.65;3.25;;;;;;;;;;1044101;28;20025;-25
2023/04/08 01:48:37;;;;;;;11.07;3.83;;;;;;;;;;1042855;28;20487;-25
2023/04/08 01:49:09;;;;;;;10.45;3.35;;;;;;;;;;1042372;28;20029;-24
2023/04/08 01:49:40;;;;;;;9.57;1.85;;;;;;;;;;1041522;28;20156;-23
2023/04/08 01:50:12;;;;;;;3.72;1.38;;;;;;;;;;1038478;28;20033;-23
2023/04/08 01:50:43;;;;;;;4.13;2.08;;;;;;;;;;1038523;28;20060;-22
2023/04/08 01:51:14;;;;;;;5.85;3.40;;;;;;;;;;1039363;28;20026;-23
2023/04/08 01:51:46;;;;;;;4.75;1.98;;;;;;;;;;1041993;28;20091;-24
2023/04/08 01:52:17;;;;;;;4.07;2.33;;;;;;;;;;1042958;28;20037;-23
2023/04/08 01:52:48;;;;;;;15.07;1.92;;;;;;;;;;1042975;28;20029;-21
2023/04/08 01:53:19;;;;;;;3.08;1.60;;;;;;;;;;1043311;28;20075;-23
2023/04/08 01:53:50;;;;;;;4.78;2.13;;;;;;;;;;1043320;28;20452;-24
2023/04/08 01:54:21;;;;;;;7.65;2.78;;;;;;;;;;1042152;28;20420;-23
2023/04/08 01:54:53;;;;;;;14.25;1.95;;;;;;;;;;1041637;28;20036;-22
2023/04/08 01:55:24;;;;;;;3.80;1.35;;;;;;;;;;1038446;28;20108;-23
2023/04/08 01:55:57;;;;;;;4.85;2.15;;;;;;;;;;1043692;28;20033;-24
2023/04/08 01:56:31;;;;;;;9.73;2.13;;;;;;;;;;1043523;28;20025;-23
2023/04/08 01:57:03;;;;;;;4.13;2.00;;;;;;;;;;1042236;28;20093;-23
2023/04/08 01:57:35;;;;;;;1.85;1.60;;;;;;;;;;1043208;28;20567;-23
2023/04/08 01:58:07;;;;;;;3.38;2.10;;;;;;;;;;1043370;28;20017;-23
2023/04/08 01:58:42;;;;;;;6.50;2.75;;;;;;;;;;1043508;28;20036;-21
2023/04/08 01:59:14;;;;;;;6.20;1.73;;;;;;;;;;1044241;28;20503;-24
2023/04/08 01:59:47;;;;;;;2.45;0.98;;;;;;;;;;1044192;28;20050;-23
2023/04/08 02:00:20;;;;;;;4.03;2.38;;;;;;;;;;1044100;28;20023;-21
2023/04/08 02:00:52;;;;;;;4.68;1.95;;;;;;;;;;1043693;28;20024;-24
2023/04/08 02:01:25;;;;;;;1.63;1.52;;;;;;;;;;1039429;28;20575;-24
2023/04/08 02:01:56;;;;;;;2.00;1.75;;;;;;;;;;1039114;28;20120;-21
2023/04/08 02:02:27;;;;;;;2.15;1.95;;;;;;;;;;1038809;28;20381;-24
2023/04/08 02:02:58;;;;;;;2.50;2.25;;;;;;;;;;1037841;28;20021;-23
2023/04/08 02:03:29;;;;;;;3.28;2.10;;;;;;;;;;1043149;28;20032;-24
2023/04/08 02:04:01;;;;;;;3.90;2.90;;;;;;;;;;1044124;28;20032;-24
2023/04/08 02:04:32;;;;;;;2.28;1.10;;;;;;;;;;1042637;28;20064;-24
2023/04/08 02:05:03;;;;;;;2.92;1.65;;;;;;;;;;1042933;28;20031;-22
2023/04/08 02:05:33;;;;;;;4.85;1.15;;;;;;;;;;1041999;28;20036;-24
2023/04/08 02:06:04;;;;;;;13.60;2.03;;;;;;;;;;1043488;28;20542;-21
2023/04/08 02:06:35;;;;;;;3.25;1.38;;;;;;;;;;1043847;28;20089;-23
2023/04/08 02:07:06;;;;;;;4.43;2.05;;;;;;;;;;1042859;28;20029;-24
2023/04/08 02:07:36;;;;;;;1.75;1.15;;;;;;;;;;1043367;28;20464;-24
2023/04/08 02:08:07;;;;;;;1.48;0.95;;;;;;;;;;1042778;28;20052;-23
2023/04/08 02:08:37;;;;;;;2.13;1.58;;;;;;;;;;1042598;28;20021;-24
2023/04/08 02:09:08;;;;;;;3.00;1.75;;;;;;;;;;1042450;28;20056;-22
2023/04/08 02:09:39;;;;;;;8.57;1.58;;;;;;;;;;1042925;28;20021;-24
2023/04/08 02:10:10;;;;;;;4.82;0.77;;;;;;;;;;1043094;28;20029;-24
2023/04/08 02:10:40;;;;;;;4.22;2.90;;;;;;;;;;1041785;28;20454;-20
2023/04/08 02:11:11;;;;;;;1.58;0.93;;;;;;;;;;1042563;28;20029;-23
2023/04/08 02:11:42;;;;;;;1.27;0.63;;;;;;;;;;1042703;28;20060;-24
2023/04/08 02:12:12;;;;;;;2.58;1.05;;;;;;;;;;1042673;28;20090;-24
2023/04/08 02:12:43;;;;;;;1.83;1.17;;;;;;;;;;1041708;28;20098;-23
2023/04/08 02:13:14;;;;;;;2.53;0.73;;;;;;;;;;1043148;28;20025;-24
2023/04/08 02:13:45;;;;;;;8.35;2.05;;;;;;;;;;1043170;28;20025;-24
2023/04/08 02:14:15;;;;;;;2.95;1.45;;;;;;;;;;1043425;28;20082;-22
2023/04/08 02:14:46;;;;;;;3.70;1.40;;;;;;;;;;1043203;28;20021;-24
2023/04/08 02:15:16;;;;;;;2.47;1.95;;;;;;;;;;1043474;28;20469;-24
2023/04/08 02:15:52;;;;;;;4.72;1.58;;;;;;;;;;1043302;28;20102;-23
2023/04/08 02:16:45;;;;;;;2.08;1.52;;;;;;;;;;1043313;28;20102;-24
2023/04/08 02:17:19;;;;;;;2.67;1.70;;;;;;;;;;1042839;28;20448;-25
2023/04/08 02:17:54;;;;;;;1.70;1.02;;;;;;;;;;1042976;28;20029;-25
2023/04/08 02:18:28;;;;;;;2.22;1.23;;;;;;;;;;1043523;28;20533;-25
2023/04/08 02:19:07;;;;;;;2.65;1.27;;;;;;;;;;1042838;28;20515;-24
2023/04/08 02:19:45;;;;;;;1.27;1.08;;;;;;;;;;1042267;28;20021;-22
2023/04/08 02:20:15;;;;;;;1.70;1.38;;;;;;;;;;1043155;28;20029;-24
2023/04/08 02:20:49;;;;;;;1.98;1.15;;;;;;;;;;1043095;28;20022;-23
2023/04/08 02:21:21;;;;;;;4.25;2.03;;;;;;;;;;1043208;28;20029;-24
2023/04/08 02:21:54;;;;;;;1.67;1.48;;;;;;;;;;1038623;28;20520;-25
2023/04/08 02:22:30;;;;;;;1.20;1.13;;;;;;;;;;1039406;28;20157;-25
2023/04/08 02:23:09;;;;;;;0.73;0.73;;;;;;;;;;1040535;28;20026;-25
2023/04/08 02:23:41;;;;;;;9.65;2.83;;;;;;;;;;1043381;28;20028;-21
2023/04/08 02:24:12;;;;;;;1.05;0.90;;;;;;;;;;1043235;28;20029;-24
2023/04/08 02:24:44;;;;;;;3.30;1.58;;;;;;;;;;1041885;28;20571;-25
2023/04/08 02:25:16;;;;;;;2.83;0.95;;;;;;;;;;1043046;28;20111;-24
2023/04/08 02:25:47;;;;;;;2.30;1.08;;;;;;;;;;1043883;28;20028;-24
2023/04/08 02:26:18;;;;;;;1.67;0.73;;;;;;;;;;1043302;28;20507;-24
2023/04/08 02:26:50;;;;;;;3.78;0.88;;;;;;;;;;1042850;28;20031;-25
2023/04/08 02:27:22;;;;;;;5.05;1.55;;;;;;;;;;1042740;28;20087;-22
2023/04/08 02:27:53;;;;;;;2.25;1.38;;;;;;;;;;1042359;28;20544;-25
2023/04/08 02:28:25;;;;;;;2.33;1.48;;;;;;;;;;1041985;28;20381;-24
2023/04/08 02:28:56;;;;;;;1.10;0.90;;;;;;;;;;1043117;28;20021;-23
2023/04/08 02:29:28;;;;;;;2.88;0.82;;;;;;;;;;1041007;28;20032;-24
2023/04/08 02:30:00;;;;;;;7.80;1.48;;;;;;;;;;1041950;28;20037;-24
2023/04/08 02:30:31;;;;;;;1.80;1.23;;;;;;;;;;1043677;28;20029;-24
2023/04/08 02:31:02;;;;;;;12.40;2.25;;;;;;;;;;1043452;28;20016;-24
2023/04/08 02:31:33;;;;;;;1.95;1.48;;;;;;;;;;1043212;28;20099;-24
2023/04/08 02:32:04;;;;;;;6.97;1.05;;;;;;;;;;1042979;28;20031;-24
2023/04/08 02:32:35;;;;;;;1.20;0.90;;;;;;;;;;1040361;28;21267;-22
2023/04/08 02:33:06;;;;;;;1.33;1.13;;;;;;;;;;1041672;28;20071;-24
2023/04/08 02:33:37;;;;;;;10.32;1.85;;;;;;;;;;1042744;28;20556;-24
2023/04/08 02:34:09;;;;;;;5.60;2.22;;;;;;;;;;1042176;28;20032;-22
2023/04/08 02:34:40;;;;;;;5.28;2.33;;;;;;;;;;1041905;28;20071;-25
2023/04/08 02:35:12;;;;;;;4.05;2.00;;;;;;;;;;1040655;28;20091;-24
2023/04/08 02:35:43;;;;;;;4.47;1.50;;;;;;;;;;1042991;28;20036;-22
2023/04/08 02:36:14;;;;;;;2.58;1.67;;;;;;;;;;1042776;28;20032;-23
2023/04/08 02:36:46;;;;;;;9.00;3.83;;;;;;;;;;1040962;28;20033;-25
2023/04/08 02:37:17;;;;;;;9.32;2.03;;;;;;;;;;1042847;28;20025;-24
2023/04/08 02:37:47;;;;;;;6.75;2.50;;;;;;;;;;1042678;28;20065;-24
2023/04/08 02:38:21;;;;;;;6.32;2.20;;;;;;;;;;1040862;28;20025;-23
2023/04/08 02:38:52;;;;;;;13.98;1.10;;;;;;;;;;1042737;28;20397;-24
2023/04/08 02:39:30;;;;;;;2.00;1.52;;;;;;;;;;1042594;28;20028;-23
2023/04/08 02:40:00;;;;;;;4.70;2.42;;;;;;;;;;1041846;28;20044;-24
2023/04/08 02:40:31;;;;;;;24.35;2.03;;;;;;;;;;1043092;28;20551;-24
2023/04/08 02:41:02;;;;;;;3.42;1.13;;;;;;;;;;1043037;28;20829;-24
2023/04/08 02:41:33;;;;;;;3.67;1.40;;;;;;;;;;1043570;28;20083;-23
2023/04/08 02:42:04;;;;;;;2.15;1.10;;;;;;;;;;1042693;28;20025;-22
2023/04/08 02:42:35;;;;;;;5.07;1.77;;;;;;;;;;1042760;28;20025;-21
2023/04/08 02:43:06;;;;;;;3.38;1.05;;;;;;;;;;1041545;28;20027;-22
2023/04/08 02:43:36;;;;;;;2.17;1.25;;;;;;;;;;1042378;28;20049;-23
2023/04/08 02:44:08;;;;;;;2.92;1.00;;;;;;;;;;1042673;28;20052;-24
2023/04/08 02:44:38;;;;;;;1.98;1.40;;;;;;;;;;1042332;28;20036;-21
2023/04/08 02:45:09;;;;;;;1.52;1.25;;;;;;;;;;1043390;28;20021;-25
2023/04/08 02:45:40;;;;;;;4.82;0.75;;;;;;;;;;1040770;28;20486;-24
2023/04/08 02:46:11;;;;;;;0.60;0.60;;;;;;;;;;1040837;28;20588;-24
2023/04/08 02:46:41;;;;;;;3.55;2.67;;;;;;;;;;1041486;28;20406;-23
2023/04/08 02:47:12;;;;;;;4.10;0.90;;;;;;;;;;1043143;28;20078;-24
2023/04/08 02:47:43;;;;;;;2.63;1.63;;;;;;;;;;1041556;28;20473;-24
2023/04/08 02:48:13;;;;;;;2.10;2.00;;;;;;;;;;1042760;28;20025;-23
2023/04/08 02:48:44;;;;;;;1.35;1.25;;;;;;;;;;1042326;28;20067;-24
2023/04/08 02:49:15;;;;;;;1.13;0.85;;;;;;;;;;1042345;28;20077;-24
2023/04/08 02:49:46;;;;;;;8.70;2.17;;;;;;;;;;1038710;28;20040;-24
2023/04/08 02:50:17;;;;;;;5.35;1.27;;;;;;;;;;1042641;28;20510;-24
2023/04/08 02:50:48;;;;;;;4.43;1.85;;;;;;;;;;1042608;28;20032;-24
2023/04/08 02:51:19;;;;;;;4.78;1.13;;;;;;;;;;1043251;28;20025;-24
2023/04/08 02:51:50;;;;;;;1.23;1.13;;;;;;;;;;1042542;28;20063;-25
2023/04/08 02:52:21;;;;;;;5.22;1.58;;;;;;;;;;1043332;28;20021;-25
2023/04/08 02:52:55;;;;;;;0.88;0.63;;;;;;;;;;1043406;28;20074;-23
2023/04/08 02:53:27;;;;;;;0.80;0.80;;;;;;;;;;1042744;28;20017;-25
2023/04/08 02:53:58;;;;;;;0.77;0.75;;;;;;;;;;1042450;28;20032;-22
2023/04/08 02:54:29;;;;;;;6.05;1.55;;;;;;;;;;1043211;28;20037;-24
2023/04/08 02:54:59;;;;;;;7.47;2.55;;;;;;;;;;1041797;28;20036;-24
2023/04/08 02:55:30;;;;;;;7.22;1.77;;;;;;;;;;1041960;28;20028;-23
2023/04/08 02:56:01;;;;;;;0.93;0.85;;;;;;;;;;1042961;28;20060;-24
2023/04/08 02:56:35;;;;;;;2.50;1.65;;;;;;;;;;1043326;28;20832;-23
2023/04/08 02:57:05;;;;;;;8.05;0.90;;;;;;;;;;1042116;28;20025;-23
2023/04/08 02:57:38;;;;;;;2.15;1.38;;;;;;;;;;1043066;28;20108;-23
2023/04/08 02:58:08;;;;;;;3.58;1.30;;;;;;;;;;1043543;28;20028;-22
2023/04/08 02:58:39;;;;;;;4.13;2.15;;;;;;;;;;1040635;28;20017;-24
2023/04/08 02:59:09;;;;;;;19.83;1.70;;;;;;;;;;1041536;28;20029;-24
2023/04/08 02:59:43;;;;;;;6.65;1.15;;;;;;;;;;1040925;28;20028;-24
2023/04/08 03:00:16;;;;;;;1.77;1.13;;;;;;;;;;1042254;28;20029;-23
2023/04/08 03:00:47;;;;;;;8.98;1.52;;;;;;;;;;1041532;28;20108;-24
2023/04/08 03:01:20;;;;;;;1.45;0.98;;;;;;;;;;1042545;28;20517;-24
2023/04/08 03:01:51;;;;;;;1.15;1.05;;;;;;;;;;1040616;28;20059;-24
2023/04/08 03:02:28;;;;;;;0.75;0.65;;;;;;;;;;1043444;28;20461;-25
2023/04/08 03:03:06;;;;;;;1.20;1.10;;;;;;;;;;1042556;28;20021;-25
2023/04/08 03:03:39;;;;;;;7.97;1.30;;;;;;;;;;1039278;28;20037;-25
2023/04/08 03:04:10;;;;;;;1.58;0.77;;;;;;;;;;1041514;28;20485;-25
2023/04/08 03:04:44;;;;;;;2.30;1.52;;;;;;;;;;1041853;28;20455;-24
2023/04/08 03:05:16;;;;;;;1.70;1.00;;;;;;;;;;1042242;28;20060;-22
2023/04/08 03:05:47;;;;;;;4.80;1.20;;;;;;;;;;1042488;28;21300;-23
2023/04/08 03:06:18;;;;;;;1.25;1.05;;;;;;;;;;1043355;28;20082;-22
2023/04/08 03:06:48;;;;;;;0.75;0.57;;;;;;;;;;1040750;28;20082;-24
2023/04/08 03:07:21;;;;;;;4.70;1.95;;;;;;;;;;1042170;28;20017;-23
2023/04/08 03:07:59;;;;;;;7.00;2.13;;;;;;;;;;1041969;28;20021;-25
2023/04/08 03:08:30;;;;;;;0.22;0.22;;;;;;;;;;1040699;28;20482;-22
2023/04/08 03:09:01;;;;;;;1.73;1.20;;;;;;;;;;1042671;28;20029;-23
2023/04/08 03:09:31;;;;;;;1.20;0.98;;;;;;;;;;1041965;28;20811;-24